createdAt,value
2019-01-17T00:04:38.182Z,1.35
2019-01-17T00:07:40.242Z,1.39
2019-01-17T00:10:40.175Z,1.30
2019-01-17T00:13:29.534Z,1.25
2019-01-17T00:16:37.774Z,1.25
2019-01-17T00:19:49.162Z,1.31
2019-01-17T00:22:57.417Z,1.22
2019-01-17T00:25:46.894Z,1.23
2019-01-17T14:35:58.264Z,7.08
2019-01-17T14:38:41.702Z,7.11
2019-01-17T14:41:12.228Z,7.02
2019-01-17T14:43:54.011Z,7.04
2019-01-17T14:46:24.481Z,7.01
2019-01-17T14:49:13.965Z,7.08
2019-01-17T14:55:05.843Z,6.97
2019-01-17T14:57:43.626Z,6.93
2019-01-17T15:03:16.890Z,6.98
2019-01-17T15:08:37.927Z,7.05
2019-01-17T15:11:08.450Z,7.06
2019-01-17T15:13:39.018Z,7.04
2019-01-17T15:16:28.314Z,7.02
2019-01-17T15:19:39.691Z,6.99
2019-01-17T15:22:28.980Z,6.88
2019-01-17T15:25:18.485Z,6.76
2019-01-17T15:28:09.921Z,6.70
2019-01-17T15:30:40.243Z,6.69
2019-01-17T15:33:29.436Z,6.70
2019-01-17T15:35:59.717Z,6.57
2019-01-17T15:38:49.203Z,6.43
2019-01-17T15:41:40.799Z,5.38
2019-01-17T15:44:30.385Z,6.20
2019-01-17T15:47:22.908Z,6.19
2019-01-17T15:50:07.059Z,6.13
2019-01-17T15:52:37.684Z,6.12
2019-01-17T15:55:10.239Z,6.10
2019-01-17T15:58:01.633Z,6.09
2019-01-17T16:00:39.830Z,6.05
2019-01-17T16:03:30.496Z,6.03
2019-01-17T16:06:17.887Z,6.02
2019-01-17T16:09:10.550Z,6.00
2019-01-17T16:11:19.998Z,5.97
2019-01-17T16:17:01.205Z,6.05
2019-01-17T16:19:51.568Z,6.03
2019-01-17T16:23:01.235Z,6.00
2019-01-17T16:25:50.280Z,6.03
2019-01-17T16:28:47.826Z,6.04
2019-01-17T16:31:25.981Z,6.00
2019-01-17T16:33:58.083Z,5.91
2019-01-17T16:36:31.583Z,5.69
2019-01-17T16:41:39.196Z,5.45
2019-01-17T16:44:28.422Z,5.38
2019-01-17T16:46:58.720Z,5.26
2019-01-17T16:49:48.246Z,5.23
2019-01-17T16:52:26.448Z,5.17
2019-01-17T16:55:16.487Z,5.14
2019-01-17T16:58:08.305Z,5.16
2019-01-17T17:01:04.709Z,5.25
2019-01-17T17:04:15.795Z,5.16
2019-01-17T17:07:08.340Z,5.22
2019-01-17T17:09:41.036Z,5.21
2019-01-17T17:12:31.314Z,5.32
2019-01-17T17:18:12.551Z,5.30
2019-01-17T17:20:53.733Z,5.31
2019-01-17T17:23:35.448Z,5.46
2019-01-17T17:26:17.265Z,5.21
2019-01-17T17:28:49.930Z,5.61
2019-01-17T17:31:44.017Z,5.68
2019-01-17T17:34:34.834Z,5.54
2019-01-17T17:37:33.316Z,5.00
2019-01-17T17:40:17.155Z,4.40
2019-01-17T17:42:51.985Z,3.91
2019-01-17T17:45:41.507Z,3.55
2019-01-17T17:48:42.334Z,3.40
2019-01-17T17:51:03.539Z,3.33
2019-01-17T17:53:47.057Z,3.27
2019-01-17T17:56:28.025Z,3.26
2019-01-17T17:59:01.157Z,3.21
2019-01-17T18:04:55.206Z,3.16
2019-01-17T18:08:10.593Z,3.19
2019-01-17T18:11:09.529Z,3.23
2019-01-17T18:14:38.143Z,3.26
2019-01-17T18:17:11.004Z,3.29
2019-01-17T18:19:41.177Z,3.30
2019-01-17T18:25:27.074Z,3.32
2019-01-17T18:31:04.469Z,3.39
2019-01-17T18:34:02.332Z,3.32
2019-01-17T18:36:34.362Z,2.91
2019-01-17T18:39:31.315Z,3.25
2019-01-17T18:42:10.837Z,3.27
2019-01-17T18:44:42.248Z,3.22
2019-01-17T18:47:33.471Z,3.16
2019-01-17T18:50:30.325Z,3.21
2019-01-17T18:56:05.446Z,3.18
2019-01-17T18:58:37.245Z,3.16
2019-01-17T19:01:15.054Z,3.15
2019-01-17T19:04:03.402Z,3.10
2019-01-17T19:06:33.774Z,3.16
2019-01-17T19:12:20.821Z,3.06
2019-01-17T19:14:55.966Z,2.23
2019-01-17T19:18:05.687Z,3.01
2019-01-17T19:20:55.521Z,2.95
2019-01-17T19:23:44.867Z,2.06
2019-01-17T19:29:13.181Z,2.97
2019-01-17T19:31:52.354Z,2.85
2019-01-17T19:34:33.116Z,2.90
2019-01-17T19:37:04.497Z,2.89
2019-01-17T19:39:53.974Z,2.86
2019-01-17T19:42:43.558Z,2.85
2019-01-17T19:45:15.376Z,2.84
2019-01-17T19:48:21.928Z,2.75
2019-01-17T19:50:52.583Z,2.76
2019-01-17T19:53:44.586Z,2.75
2019-01-17T19:56:16.643Z,2.86
2019-01-17T19:58:50.704Z,2.83
2019-01-17T20:01:23.777Z,2.93
2019-01-17T20:04:15.218Z,2.88
2019-01-17T20:13:11.675Z,2.65
2019-01-17T20:16:00.345Z,2.57
2019-01-17T20:19:15.430Z,1.90
2019-01-17T20:24:55.191Z,2.00
2019-01-17T20:27:44.501Z,2.03
2019-01-17T20:33:09.354Z,2.09
2019-01-17T20:35:39.935Z,2.04
2019-01-17T20:38:30.274Z,2.08
2019-01-17T20:41:01.956Z,1.21
2019-01-17T20:43:53.841Z,2.24
2019-01-17T20:49:22.191Z,2.54
2019-01-17T20:51:53.358Z,2.13
2019-01-17T20:54:45.433Z,1.76
2019-01-17T21:02:57.699Z,1.44
2019-01-17T21:05:48.622Z,1.47
2019-01-17T21:08:44.373Z,1.46
2019-01-17T21:17:34.052Z,1.81
2019-01-17T21:29:08.218Z,1.87
2019-01-17T21:32:00.092Z,1.84
2019-01-17T21:34:49.838Z,1.85
2019-01-17T21:37:39.456Z,0.94
2019-01-17T21:40:31.985Z,1.77
2019-01-17T21:43:04.685Z,1.77
2019-01-17T21:48:38.895Z,1.75
2019-01-17T21:51:24.498Z,1.70
2019-01-17T21:54:06.656Z,1.70
2019-01-17T22:06:13.637Z,1.68
2019-01-17T22:09:04.115Z,1.70
2019-01-17T22:14:34.918Z,1.65
2019-01-17T22:17:05.325Z,1.67
2019-01-17T22:19:38.363Z,1.62
2019-01-17T22:22:19.911Z,1.64
2019-01-17T22:25:19.641Z,1.74
2019-01-17T22:28:11.106Z,1.81
2019-01-17T22:30:41.258Z,1.90
2019-01-17T22:33:11.931Z,1.89
2019-01-17T22:39:21.850Z,1.75
2019-01-17T22:42:14.379Z,1.67
2019-01-17T22:45:03.867Z,1.69
2019-01-17T22:47:34.741Z,1.58
2019-01-17T22:50:06.547Z,1.50
2019-01-17T22:52:37.145Z,1.57
2019-01-17T22:55:27.756Z,1.46
2019-01-17T22:58:17.100Z,1.43
2019-01-17T23:01:28.031Z,1.44
2019-01-17T23:04:20.826Z,1.42
2019-01-17T23:10:26.955Z,1.30
2019-01-17T23:13:16.427Z,1.21
2019-01-17T23:16:06.498Z,1.09
2019-01-17T23:18:38.836Z,1.04
2019-01-17T23:24:25.857Z,1.10
2019-01-17T23:30:23.949Z,1.05
2019-01-17T23:32:54.420Z,0.99
2019-01-17T23:35:44.022Z,0.95
2019-01-17T23:38:33.585Z,0.98
2019-01-17T23:41:25.959Z,1.03
2019-01-17T23:43:56.287Z,0.92
2019-01-17T23:46:26.799Z,0.88
2019-01-17T23:51:50.714Z,0.89
2019-01-17T23:54:40.238Z,0.84
2019-01-17T23:57:29.608Z,0.84
